createdAt,value
2023-05-11T00:00:18.928Z,0.70
2023-05-11T00:02:52.288Z,0.77
2023-05-11T00:05:20.920Z,2.33
2023-05-11T00:07:50.817Z,0.70
2023-05-11T00:10:19.514Z,1.77
2023-05-11T00:12:48.118Z,11.20
2023-05-11T00:15:16.429Z,1.00
2023-05-11T00:17:45.387Z,1.67
2023-05-11T00:20:13.967Z,1.10
2023-05-11T00:22:44.790Z,2.73
2023-05-11T00:25:15.280Z,0.90
2023-05-11T00:27:46.192Z,1.77
2023-05-11T00:30:17.031Z,1.57
2023-05-11T00:32:46.192Z,0.93
2023-05-11T00:35:14.919Z,1.43
2023-05-11T00:37:43.539Z,1.20
2023-05-11T00:40:12.220Z,1.07
2023-05-11T00:42:42.003Z,0.90
2023-05-11T00:45:11.554Z,0.80
2023-05-11T00:47:39.917Z,1.10
2023-05-11T00:50:09.228Z,1.00
2023-05-11T00:52:44.009Z,0.70
2023-05-11T00:55:13.365Z,0.70
2023-05-11T00:57:43.649Z,0.80
2023-05-11T01:00:12.847Z,1.00
2023-05-11T01:02:41.737Z,0.63
2023-05-11T01:05:10.904Z,0.90
2023-05-11T01:07:41.397Z,0.83
2023-05-11T01:10:12.911Z,2.87
2023-05-11T01:12:48.160Z,0.97
2023-05-11T01:15:18.911Z,0.93
2023-05-11T01:17:51.114Z,0.70
2023-05-11T01:20:20.635Z,1.10
2023-05-11T01:23:07.494Z,0.90
2023-05-11T01:25:51.921Z,1.20
2023-05-11T01:28:35.215Z,0.77
2023-05-11T01:31:07.708Z,0.70
2023-05-11T01:33:37.233Z,1.40
2023-05-11T01:36:07.557Z,1.33
2023-05-11T01:38:37.804Z,3.80
2023-05-11T01:41:10.129Z,0.70
2023-05-11T01:43:39.669Z,0.60
2023-05-11T01:46:10.923Z,0.70
2023-05-11T01:48:40.857Z,0.80
2023-05-11T01:51:09.655Z,0.80
2023-05-11T01:53:39.511Z,0.83
2023-05-11T01:56:08.825Z,0.80
2023-05-11T01:58:38.644Z,0.80
2023-05-11T02:01:07.287Z,1.10
2023-05-11T02:03:38.254Z,8.03
2023-05-11T02:06:08.791Z,4.63
2023-05-11T02:08:38.298Z,0.60
2023-05-11T02:11:08.426Z,1.57
2023-05-11T02:13:38.308Z,0.80
2023-05-11T02:16:08.375Z,1.20
2023-05-11T02:18:40.268Z,1.33
2023-05-11T02:21:10.491Z,0.70
2023-05-11T02:23:41.554Z,2.93
2023-05-11T02:26:10.336Z,2.97
2023-05-11T02:28:38.862Z,0.93
2023-05-11T02:31:10.346Z,0.60
2023-05-11T02:33:42.761Z,1.17
2023-05-11T02:36:11.682Z,1.00
2023-05-11T02:38:40.871Z,0.60
2023-05-11T02:41:11.165Z,2.30
2023-05-11T02:43:42.090Z,0.67
2023-05-11T02:46:13.414Z,1.63
2023-05-11T02:48:45.508Z,0.70
2023-05-11T02:51:15.288Z,0.60
2023-05-11T02:53:45.453Z,0.60
2023-05-11T02:56:14.332Z,2.70
2023-05-11T02:58:43.055Z,2.40
2023-05-11T03:01:13.003Z,1.83
2023-05-11T03:03:43.386Z,0.77
2023-05-11T03:06:11.834Z,0.60
2023-05-11T03:08:40.652Z,2.50
2023-05-11T03:11:09.723Z,1.13
2023-05-11T03:13:38.237Z,1.47
2023-05-11T03:16:07.987Z,0.80
2023-05-11T03:18:38.104Z,3.30
2023-05-11T03:21:08.984Z,0.90
2023-05-11T03:23:37.886Z,1.53
2023-05-11T03:26:07.299Z,0.77
2023-05-11T03:28:37.196Z,1.17
2023-05-11T03:31:07.756Z,1.47
2023-05-11T03:33:36.624Z,0.87
2023-05-11T03:36:05.315Z,0.50
2023-05-11T03:38:36.262Z,0.80
2023-05-11T03:41:04.648Z,1.03
2023-05-11T03:43:34.085Z,0.57
2023-05-11T03:46:03.004Z,2.00
2023-05-11T03:48:32.258Z,2.87
2023-05-11T03:51:00.951Z,0.50
2023-05-11T03:53:29.497Z,0.80
2023-05-11T03:55:59.697Z,0.50
2023-05-11T03:58:28.190Z,1.23
2023-05-11T04:01:20.132Z,0.70
2023-05-11T04:03:52.125Z,1.37
2023-05-11T04:06:21.203Z,0.70
2023-05-11T04:08:49.641Z,0.60
2023-05-11T04:11:19.548Z,0.70
2023-05-11T04:13:48.044Z,1.70
2023-05-11T04:16:16.498Z,0.60
2023-05-11T04:18:44.856Z,10.90
2023-05-11T04:21:13.551Z,0.80
2023-05-11T04:23:42.033Z,0.60
2023-05-11T04:26:10.404Z,0.60
2023-05-11T04:28:40.316Z,0.93
2023-05-11T04:31:08.762Z,2.53
2023-05-11T04:33:37.087Z,0.50
2023-05-11T04:36:06.126Z,0.60
2023-05-11T04:38:34.493Z,1.33
2023-05-11T04:41:04.835Z,0.87
2023-05-11T04:43:33.193Z,2.73
2023-05-11T04:46:25.367Z,0.80
2023-05-11T04:48:55.509Z,1.00
2023-05-11T04:51:24.496Z,0.73
2023-05-11T04:53:52.828Z,0.50
2023-05-11T04:56:21.529Z,1.13
2023-05-11T04:58:49.934Z,0.70
2023-05-11T05:01:18.458Z,0.60
2023-05-11T05:03:49.812Z,0.60
2023-05-11T05:06:19.934Z,0.60
2023-05-11T05:08:48.258Z,0.87
2023-05-11T05:11:16.726Z,0.60
2023-05-11T05:14:08.068Z,0.50
2023-05-11T05:16:36.438Z,0.60
2023-05-11T05:19:05.127Z,0.50
2023-05-11T05:21:35.820Z,0.50
2023-05-11T05:24:06.260Z,0.73
2023-05-11T05:26:34.800Z,0.90
2023-05-11T05:29:03.100Z,0.60
2023-05-11T05:31:31.753Z,0.50
2023-05-11T05:34:00.645Z,0.50
2023-05-11T05:36:29.096Z,1.00
2023-05-11T05:38:59.968Z,0.80
2023-05-11T05:41:28.663Z,1.47
2023-05-11T05:43:57.172Z,1.90
2023-05-11T05:46:25.608Z,0.50
2023-05-11T05:48:54.068Z,0.63
2023-05-11T05:51:22.710Z,0.60
2023-05-11T05:53:51.174Z,0.50
2023-05-11T05:56:21.775Z,0.80
2023-05-11T05:58:50.213Z,1.50
2023-05-11T06:01:18.757Z,0.93
2023-05-11T06:03:47.544Z,0.50
2023-05-11T06:06:16.101Z,0.60
2023-05-11T06:08:44.586Z,1.07
2023-05-11T06:11:13.005Z,0.60
2023-05-11T06:13:42.750Z,2.97
2023-05-11T06:16:11.311Z,1.27
2023-05-11T06:18:42.839Z,0.83
2023-05-11T06:21:11.258Z,0.50
2023-05-11T06:23:39.632Z,0.80
2023-05-11T06:26:08.036Z,0.50
2023-05-11T06:28:36.618Z,1.63
2023-05-11T06:31:06.423Z,0.57
2023-05-11T06:33:35.150Z,0.60
2023-05-11T06:36:05.848Z,0.80
2023-05-11T06:38:34.303Z,1.00
2023-05-11T06:41:02.714Z,0.53
2023-05-11T06:43:30.968Z,0.60
2023-05-11T06:45:59.798Z,1.83
2023-05-11T06:48:30.017Z,1.10
2023-05-11T06:50:58.629Z,1.10
2023-05-11T06:53:27.211Z,0.80
2023-05-11T06:56:02.740Z,0.70
2023-05-11T06:58:31.636Z,0.73
2023-05-11T07:01:00.403Z,0.60
2023-05-11T07:03:30.443Z,1.13
2023-05-11T07:06:07.017Z,1.00
2023-05-11T07:08:35.532Z,0.50
2023-05-11T07:11:03.838Z,0.60
2023-05-11T07:13:33.604Z,0.80
2023-05-11T07:16:06.955Z,1.37
2023-05-11T07:18:52.589Z,1.80
2023-05-11T07:21:29.623Z,0.70
2023-05-11T07:23:58.206Z,0.70
2023-05-11T07:26:33.935Z,0.77
2023-05-11T07:29:02.442Z,1.27
2023-05-11T07:31:37.219Z,0.50
2023-05-11T07:34:05.828Z,1.40
2023-05-11T07:36:42.843Z,1.63
2023-05-11T07:39:21.490Z,0.50
2023-05-11T07:41:50.144Z,0.53
2023-05-11T07:44:18.599Z,0.53
2023-05-11T07:46:47.210Z,0.50
2023-05-11T07:49:20.533Z,0.70
2023-05-11T07:51:53.013Z,2.60
2023-05-11T07:54:21.854Z,0.50
2023-05-11T07:56:50.460Z,1.03
2023-05-11T07:59:42.623Z,0.60
2023-05-11T08:02:13.090Z,0.70
2023-05-11T08:04:42.106Z,1.10
2023-05-11T08:07:12.022Z,0.63
2023-05-11T08:09:40.464Z,1.00
2023-05-11T08:12:15.012Z,3.03
2023-05-11T08:14:43.814Z,0.60
2023-05-11T08:17:12.197Z,0.50
2023-05-11T08:19:40.529Z,0.80
2023-05-11T08:22:11.189Z,0.97
2023-05-11T08:24:41.090Z,3.77
2023-05-11T08:27:09.528Z,0.60
2023-05-11T08:29:38.061Z,0.67
2023-05-11T08:32:11.571Z,1.10
2023-05-11T08:34:40.431Z,1.07
2023-05-11T08:37:09.288Z,1.03
2023-05-11T08:39:45.956Z,0.93
2023-05-11T08:42:17.704Z,1.00
2023-05-11T08:44:46.814Z,1.27
2023-05-11T08:49:46.917Z,1.33
2023-05-11T08:52:16.337Z,1.00
2023-05-11T08:54:45.043Z,0.53
2023-05-11T08:57:14.458Z,0.50
2023-05-11T08:59:46.053Z,0.50
2023-05-11T09:02:16.520Z,0.83
2023-05-11T09:04:48.070Z,0.60
2023-05-11T09:07:18.148Z,0.50
2023-05-11T09:09:47.948Z,0.70
2023-05-11T09:12:17.192Z,0.60
2023-05-11T09:14:50.861Z,4.87
2023-05-11T09:17:19.341Z,1.07
2023-05-11T09:20:01.083Z,0.50
2023-05-11T09:22:32.039Z,0.60
2023-05-11T09:25:01.887Z,0.50
2023-05-11T09:27:30.477Z,0.50
2023-05-11T09:30:11.553Z,0.50
2023-05-11T09:32:48.990Z,0.50
2023-05-11T09:35:24.135Z,0.60
2023-05-11T09:37:59.222Z,0.90
2023-05-11T09:40:33.543Z,0.50
2023-05-11T09:43:03.421Z,1.13
2023-05-11T09:45:40.666Z,0.50
2023-05-11T09:48:26.077Z,0.50
2023-05-11T09:51:00.407Z,0.50
2023-05-11T09:53:36.129Z,1.43
2023-05-11T09:56:05.877Z,2.20
2023-05-11T09:58:52.471Z,1.10
2023-05-11T10:01:30.839Z,0.50
2023-05-11T10:04:13.452Z,0.80
2023-05-11T10:06:49.278Z,0.50
2023-05-11T10:09:25.840Z,0.60
2023-05-11T10:11:55.548Z,0.60
2023-05-11T10:14:24.377Z,0.80
2023-05-11T10:16:54.461Z,0.50
2023-05-11T10:19:23.232Z,0.73
2023-05-11T10:21:52.436Z,0.50
2023-05-11T10:24:20.940Z,0.60
2023-05-11T10:26:49.868Z,0.57
2023-05-11T10:29:20.870Z,1.23
2023-05-11T10:31:51.244Z,0.50
2023-05-11T10:34:23.410Z,0.50
2023-05-11T10:36:54.002Z,0.60
2023-05-11T10:39:22.948Z,0.50
2023-05-11T10:41:56.881Z,0.50
2023-05-11T10:44:49.752Z,0.60
2023-05-11T10:47:35.010Z,0.50
2023-05-11T10:50:15.248Z,0.50
2023-05-11T10:53:02.470Z,0.50
2023-05-11T10:55:36.211Z,0.50
2023-05-11T10:58:09.782Z,0.60
2023-05-11T11:00:56.250Z,0.60
2023-05-11T11:03:43.925Z,0.60
2023-05-11T11:06:25.977Z,1.73
2023-05-11T11:08:58.815Z,0.50
2023-05-11T11:11:31.213Z,0.50
2023-05-11T11:14:01.736Z,0.70
2023-05-11T11:16:30.826Z,1.00
2023-05-11T11:19:18.286Z,1.20
2023-05-11T11:21:48.699Z,2.17
2023-05-11T11:24:31.940Z,0.60
2023-05-11T11:27:00.551Z,0.80
2023-05-11T11:29:29.262Z,0.60
2023-05-11T11:31:57.758Z,0.90
2023-05-11T11:34:47.454Z,0.60
2023-05-11T11:37:20.653Z,0.50
2023-05-11T11:39:50.526Z,0.80
2023-05-11T11:42:19.941Z,1.27
2023-05-11T11:44:48.558Z,1.30
2023-05-11T11:47:17.605Z,0.60
2023-05-11T11:49:46.878Z,0.50
2023-05-11T11:52:15.844Z,0.80
2023-05-11T11:54:46.292Z,1.27
2023-05-11T11:57:36.078Z,0.60
2023-05-11T12:00:07.452Z,1.43
2023-05-11T12:02:42.734Z,2.60
2023-05-11T12:05:12.709Z,0.87
2023-05-11T12:07:43.934Z,0.60
2023-05-11T12:10:14.442Z,0.90
2023-05-11T12:12:51.346Z,0.50
2023-05-11T12:15:25.978Z,0.60
2023-05-11T12:18:08.396Z,2.50
2023-05-11T12:20:39.309Z,0.70
2023-05-11T12:23:07.773Z,1.00
2023-05-11T12:25:40.273Z,1.47
2023-05-11T12:28:09.441Z,1.23
2023-05-11T12:30:43.635Z,1.33
2023-05-11T12:33:21.151Z,1.00
2023-05-11T12:35:53.585Z,0.60
2023-05-11T12:38:22.521Z,1.43
2023-05-11T12:40:56.135Z,2.70
2023-05-11T12:43:24.908Z,1.80
2023-05-11T12:45:53.558Z,0.60
2023-05-11T12:48:22.271Z,1.10
2023-05-11T12:50:50.847Z,0.60
2023-05-11T12:53:20.648Z,0.70
2023-05-11T12:56:01.220Z,1.90
2023-05-11T12:58:40.049Z,1.17
2023-05-11T13:01:12.791Z,0.67
2023-05-11T13:03:41.447Z,0.70
2023-05-11T13:06:10.466Z,1.07
2023-05-11T13:08:39.407Z,0.60
2023-05-11T13:11:23.259Z,0.60
2023-05-11T13:13:51.868Z,1.10
2023-05-11T13:16:27.365Z,0.77
2023-05-11T13:18:59.841Z,1.13
2023-05-11T13:21:29.525Z,0.60
2023-05-11T13:23:58.358Z,0.80
2023-05-11T13:26:28.783Z,2.00
2023-05-11T13:29:09.214Z,2.70
2023-05-11T13:31:44.401Z,0.70
2023-05-11T13:34:13.046Z,0.60
2023-05-11T13:36:41.436Z,2.20
2023-05-11T13:39:10.011Z,0.70
2023-05-11T13:41:39.978Z,0.93
2023-05-11T13:44:08.742Z,1.00
2023-05-11T13:46:37.573Z,0.83
2023-05-11T13:49:06.649Z,0.83
2023-05-11T13:51:35.107Z,0.50
2023-05-11T13:54:03.690Z,0.60
2023-05-11T13:56:33.168Z,1.53
2023-05-11T13:59:03.277Z,0.70
2023-05-11T14:01:32.515Z,1.40
2023-05-11T14:04:01.053Z,1.67
2023-05-11T14:06:29.574Z,1.60
2023-05-11T14:08:58.011Z,0.60
2023-05-11T14:11:26.736Z,1.63
2023-05-11T14:13:55.202Z,8.97
2023-05-11T14:16:25.021Z,0.60
2023-05-11T14:18:53.748Z,2.07
2023-05-11T14:21:22.047Z,0.70
2023-05-11T14:24:06.662Z,0.70
2023-05-11T14:26:39.137Z,0.80
2023-05-11T14:29:07.778Z,0.63
2023-05-11T14:31:38.352Z,0.60
2023-05-11T14:34:07.204Z,0.97
2023-05-11T14:36:38.305Z,1.43
2023-05-11T14:39:06.805Z,0.50
2023-05-11T14:41:35.218Z,0.70
2023-05-11T14:44:06.223Z,0.90
2023-05-11T14:46:34.742Z,0.87
2023-05-11T14:49:04.660Z,0.60
2023-05-11T14:51:33.160Z,0.93
2023-05-11T14:54:01.571Z,0.70
2023-05-11T14:56:31.401Z,0.50
2023-05-11T14:58:59.768Z,0.80
2023-05-11T15:01:28.298Z,0.60
2023-05-11T15:03:56.810Z,0.60
2023-05-11T15:06:26.902Z,0.60
2023-05-11T15:08:55.480Z,0.80
2023-05-11T15:11:23.901Z,2.60
2023-05-11T15:13:52.533Z,0.63
2023-05-11T15:16:21.121Z,1.13
2023-05-11T15:18:49.993Z,1.43
2023-05-11T15:21:23.556Z,1.17
2023-05-11T15:23:53.804Z,1.27
2023-05-11T15:26:22.904Z,0.90
2023-05-11T15:28:53.142Z,0.80
2023-05-11T15:31:23.598Z,0.63
2023-05-11T15:33:52.074Z,4.53
2023-05-11T15:36:20.633Z,0.80
2023-05-11T15:38:49.088Z,1.37
2023-05-11T15:41:18.931Z,1.57
2023-05-11T15:43:47.393Z,1.67
2023-05-11T15:46:15.844Z,1.87
2023-05-11T15:48:44.397Z,5.53
2023-05-11T15:51:13.215Z,1.60
2023-05-11T15:53:41.885Z,4.20
2023-05-11T15:56:20.182Z,1.00
2023-05-11T15:58:48.672Z,6.30
2023-05-11T16:01:17.308Z,6.10
2023-05-11T16:03:48.060Z,4.53
2023-05-11T16:06:16.693Z,1.73
2023-05-11T16:08:45.115Z,2.23
2023-05-11T16:11:13.727Z,0.90
2023-05-11T16:13:43.608Z,3.30
2023-05-11T16:16:12.226Z,9.67
2023-05-11T16:18:42.661Z,5.00
2023-05-11T16:21:11.173Z,4.50
2023-05-11T16:23:39.773Z,3.40
2023-05-11T16:26:08.274Z,4.30
2023-05-11T16:28:38.006Z,3.20
2023-05-11T16:31:09.410Z,2.50
2023-05-11T16:33:38.558Z,1.20
2023-05-11T16:36:14.055Z,0.77
2023-05-11T16:38:42.548Z,1.17
2023-05-11T16:41:13.263Z,1.30
2023-05-11T16:43:43.014Z,1.63
2023-05-11T16:46:13.493Z,3.57
2023-05-11T16:48:42.236Z,1.30
2023-05-11T16:51:10.691Z,1.10
2023-05-11T16:53:39.156Z,1.30
2023-05-11T16:56:07.973Z,1.17
2023-05-11T16:58:36.683Z,0.90
2023-05-11T17:01:08.783Z,0.70
2023-05-11T17:03:39.114Z,0.67
2023-05-11T17:06:28.636Z,0.70
2023-05-11T17:08:57.075Z,1.00
2023-05-11T17:11:25.547Z,1.10
2023-05-11T17:13:53.957Z,0.90
2023-05-11T17:16:23.363Z,1.43
2023-05-11T17:18:53.348Z,1.10
2023-05-11T17:21:22.060Z,2.60
2023-05-11T17:23:50.953Z,1.90
2023-05-11T17:26:19.852Z,1.43
2023-05-11T17:28:48.329Z,0.60
2023-05-11T17:31:17.449Z,0.83
2023-05-11T17:33:46.193Z,2.90
2023-05-11T17:36:16.449Z,0.60
2023-05-11T17:38:44.925Z,1.10
2023-05-11T17:41:13.949Z,0.80
2023-05-11T17:43:42.793Z,5.00
2023-05-11T17:46:11.266Z,0.73
2023-05-11T17:48:39.849Z,0.80
2023-05-11T17:51:08.245Z,0.70
2023-05-11T17:53:38.851Z,1.20
2023-05-11T17:56:10.193Z,0.60
2023-05-11T17:58:39.239Z,0.63
2023-05-11T18:01:12.981Z,1.37
2023-05-11T18:03:41.941Z,0.60
2023-05-11T18:06:13.486Z,1.47
2023-05-11T18:08:44.427Z,0.90
2023-05-11T18:11:15.011Z,1.10
2023-05-11T18:13:43.785Z,1.07
2023-05-11T18:16:13.269Z,0.77
2023-05-11T18:18:43.333Z,1.00
2023-05-11T18:21:12.568Z,1.17
2023-05-11T18:23:41.553Z,1.10
2023-05-11T18:26:15.915Z,1.83
2023-05-11T18:28:45.079Z,2.30
2023-05-11T18:31:19.185Z,1.67
2023-05-11T18:33:49.547Z,1.07
2023-05-11T18:36:18.485Z,0.73
2023-05-11T18:38:49.546Z,0.60
2023-05-11T18:41:19.706Z,0.80
2023-05-11T18:43:49.993Z,0.73
2023-05-11T18:46:30.132Z,0.80
2023-05-11T18:48:58.893Z,0.80
2023-05-11T18:51:40.137Z,1.33
2023-05-11T18:54:13.117Z,1.30
2023-05-11T18:56:43.198Z,1.00
2023-05-11T18:59:21.894Z,1.43
2023-05-11T19:01:54.989Z,1.80
2023-05-11T19:04:23.853Z,1.77
2023-05-11T19:06:53.233Z,0.90
2023-05-11T19:09:23.627Z,2.10
2023-05-11T19:11:54.813Z,1.40
2023-05-11T19:14:37.744Z,4.33
2023-05-11T19:17:06.426Z,1.10
2023-05-11T19:19:35.471Z,1.07
2023-05-11T19:22:05.143Z,1.20
2023-05-11T19:24:35.550Z,1.23
2023-05-11T19:27:07.740Z,1.27
2023-05-11T19:29:37.906Z,2.43
2023-05-11T19:32:10.713Z,2.70
2023-05-11T19:34:40.660Z,2.53
2023-05-11T19:37:09.265Z,3.50
2023-05-11T19:39:37.818Z,1.40
2023-05-11T19:42:10.132Z,1.87
2023-05-11T19:44:43.397Z,2.13
2023-05-11T19:47:12.777Z,1.03
2023-05-11T19:49:41.749Z,1.63
2023-05-11T19:52:10.255Z,1.50
2023-05-11T19:54:38.870Z,2.10
2023-05-11T19:57:11.204Z,1.60
2023-05-11T19:59:40.071Z,1.37
2023-05-11T20:02:09.241Z,2.30
2023-05-11T20:04:37.761Z,1.70
2023-05-11T20:07:06.340Z,3.17
2023-05-11T20:09:35.322Z,1.60
2023-05-11T20:12:04.238Z,2.37
2023-05-11T20:14:36.345Z,2.20
2023-05-11T20:17:07.982Z,1.77
2023-05-11T20:19:36.473Z,3.27
2023-05-11T20:22:05.315Z,2.90
2023-05-11T20:24:33.973Z,2.00
2023-05-11T20:27:09.025Z,2.80
2023-05-11T20:29:40.408Z,3.17
2023-05-11T20:32:09.312Z,2.13
2023-05-11T20:34:38.133Z,2.63
2023-05-11T20:37:07.365Z,3.13
2023-05-11T20:39:36.893Z,4.27
2023-05-11T20:42:06.060Z,4.40
2023-05-11T20:44:44.938Z,3.93
2023-05-11T20:47:13.581Z,3.00
2023-05-11T20:49:42.474Z,2.93
2023-05-11T20:52:10.870Z,3.43
2023-05-11T20:54:44.701Z,1.90
2023-05-11T20:57:13.201Z,3.43
2023-05-11T21:02:15.050Z,5.00
2023-05-11T21:04:44.013Z,3.23
2023-05-11T21:07:12.503Z,4.77
2023-05-11T21:09:41.109Z,3.67
2023-05-11T21:12:09.972Z,4.80
2023-05-11T21:14:38.504Z,4.17
2023-05-11T21:17:07.120Z,4.97
2023-05-11T21:19:37.220Z,3.40
2023-05-11T21:22:05.837Z,3.30
2023-05-11T21:24:34.165Z,4.30
2023-05-11T21:27:02.981Z,4.20
2023-05-11T21:29:31.540Z,5.10
2023-05-11T21:32:00.034Z,3.43
2023-05-11T21:34:28.371Z,3.43
2023-05-11T21:36:59.762Z,5.03
2023-05-11T21:39:28.426Z,5.10
2023-05-11T21:41:57.065Z,5.57
2023-05-11T21:44:25.474Z,3.17
2023-05-11T21:46:53.886Z,5.37
2023-05-11T21:49:22.205Z,4.63
2023-05-11T21:51:50.687Z,4.13
2023-05-11T21:54:42.499Z,5.07
2023-05-11T21:57:12.298Z,3.80
2023-05-11T21:59:40.726Z,6.43
2023-05-11T22:02:09.130Z,4.00
2023-05-11T22:04:37.599Z,4.20
2023-05-11T22:07:06.540Z,6.60
2023-05-11T22:09:34.967Z,6.53
2023-05-11T22:12:04.137Z,7.93
2023-05-11T22:14:34.027Z,8.73
2023-05-11T22:17:02.423Z,6.10
2023-05-11T22:19:31.034Z,4.87
2023-05-11T22:21:59.464Z,7.23
2023-05-11T22:24:28.184Z,3.30
2023-05-11T22:26:56.522Z,8.57
2023-05-11T22:29:24.922Z,5.30
2023-05-11T22:31:54.642Z,4.73
2023-05-11T22:34:23.102Z,9.43
2023-05-11T22:36:51.804Z,5.00
2023-05-11T22:39:21.080Z,4.30
2023-05-11T22:41:50.522Z,5.40
2023-05-11T22:44:18.848Z,6.73
2023-05-11T22:46:47.235Z,5.50
2023-05-11T22:49:17.206Z,9.83
2023-05-11T22:51:45.443Z,5.33
2023-05-11T22:54:13.819Z,6.60
2023-05-11T22:56:43.118Z,5.00
2023-05-11T22:59:11.727Z,4.47
2023-05-11T23:01:40.128Z,6.63
2023-05-11T23:04:08.788Z,6.37
2023-05-11T23:06:38.717Z,5.87
2023-05-11T23:09:07.870Z,8.10
2023-05-11T23:11:53.812Z,5.10
2023-05-11T23:14:22.390Z,4.87
2023-05-11T23:16:50.743Z,5.70
2023-05-11T23:19:19.267Z,6.77
2023-05-11T23:21:49.165Z,8.40
2023-05-11T23:24:17.481Z,6.37
2023-05-11T23:26:45.988Z,7.80
2023-05-11T23:29:14.339Z,6.80
2023-05-11T23:31:42.991Z,7.80
2023-05-11T23:34:11.365Z,5.60
2023-05-11T23:36:39.783Z,5.70
2023-05-11T23:39:09.720Z,5.67
2023-05-11T23:41:38.455Z,7.53
2023-05-11T23:44:07.269Z,12.10
2023-05-11T23:46:36.268Z,5.83
2023-05-11T23:49:04.797Z,6.33
2023-05-11T23:51:33.601Z,6.03
2023-05-11T23:54:02.083Z,6.20
2023-05-11T23:56:31.913Z,6.90
2023-05-11T23:59:00.346Z,9.13
